createdAt,value
2018-07-12T00:01:54.660Z,57.40
2018-07-12T00:04:22.019Z,57.50
2018-07-12T00:06:49.405Z,57.50
2018-07-12T00:09:16.760Z,58.00
2018-07-12T00:11:44.146Z,57.50
2018-07-12T00:14:11.505Z,57.50
2018-07-12T00:16:38.890Z,57.60
2018-07-12T00:19:06.247Z,57.70
2018-07-12T00:21:33.644Z,57.60
2018-07-12T00:24:01.040Z,57.60
2018-07-12T00:26:28.450Z,57.70
2018-07-12T00:28:55.803Z,57.80
2018-07-12T00:31:23.283Z,57.80
2018-07-12T00:33:50.736Z,57.80
2018-07-12T00:36:18.063Z,57.90
2018-07-12T00:38:45.437Z,58.00
2018-07-12T00:41:12.834Z,57.90
2018-07-12T00:43:40.190Z,58.00
2018-07-12T00:46:07.546Z,58.10
2018-07-12T00:48:34.935Z,58.00
2018-07-12T00:51:02.299Z,58.10
2018-07-12T00:53:29.691Z,58.20
2018-07-12T00:55:57.041Z,58.20
2018-07-12T00:58:24.430Z,58.30
2018-07-12T01:00:51.857Z,58.40
2018-07-12T01:03:19.243Z,58.30
2018-07-12T01:05:46.602Z,58.40
2018-07-12T01:08:13.982Z,58.40
2018-07-12T01:10:41.337Z,58.40
2018-07-12T01:13:08.723Z,58.50
2018-07-12T01:15:36.074Z,58.60
2018-07-12T01:18:03.446Z,58.60
2018-07-12T01:20:30.807Z,58.70
2018-07-12T01:22:58.191Z,58.70
2018-07-12T01:25:25.543Z,58.70
2018-07-12T01:27:52.918Z,59.30
2018-07-12T01:30:20.270Z,58.70
2018-07-12T01:35:25.304Z,58.80
2018-07-12T01:37:52.690Z,58.80
2018-07-12T01:40:20.090Z,58.80
2018-07-12T01:42:47.469Z,59.00
2018-07-12T01:45:14.831Z,59.00
2018-07-12T01:47:42.210Z,58.90
2018-07-12T01:50:09.563Z,59.00
2018-07-12T01:52:36.943Z,59.60
2018-07-12T01:55:04.289Z,58.80
2018-07-12T01:57:31.689Z,59.10
2018-07-12T01:59:59.039Z,59.10
2018-07-12T02:02:26.433Z,59.10
2018-07-12T02:04:53.787Z,59.10
2018-07-12T02:07:21.169Z,59.10
2018-07-12T02:09:48.526Z,59.20
2018-07-12T02:12:15.912Z,59.10
2018-07-12T02:14:43.267Z,59.10
2018-07-12T02:17:10.689Z,59.10
2018-07-12T02:19:38.081Z,59.20
2018-07-12T02:22:05.473Z,59.10
2018-07-12T02:24:32.873Z,59.30
2018-07-12T02:27:00.270Z,59.30
2018-07-12T02:29:27.617Z,60.00
2018-07-12T02:31:55.009Z,59.50
2018-07-12T02:34:22.828Z,59.60
2018-07-12T02:36:50.225Z,59.60
2018-07-12T02:39:17.619Z,59.50
2018-07-12T02:41:44.976Z,59.60
2018-07-12T02:44:12.363Z,59.60
2018-07-12T02:46:39.742Z,59.60
2018-07-12T02:49:07.293Z,59.50
2018-07-12T02:51:34.647Z,59.40
2018-07-12T02:54:02.032Z,59.40
2018-07-12T02:56:29.397Z,59.50
2018-07-12T02:58:56.824Z,59.70
2018-07-12T03:01:24.245Z,59.70
2018-07-12T03:03:51.623Z,59.70
2018-07-12T03:06:18.985Z,59.80
2018-07-12T03:08:46.378Z,59.90
2018-07-12T03:11:13.737Z,60.00
2018-07-12T03:13:41.153Z,60.00
2018-07-12T03:16:08.517Z,60.00
2018-07-12T03:18:36.366Z,60.00
2018-07-12T03:21:03.727Z,60.00
2018-07-12T03:23:31.165Z,60.10
2018-07-12T03:25:58.556Z,60.10
2018-07-12T03:28:25.960Z,60.20
2018-07-12T03:30:53.388Z,60.20
2018-07-12T03:33:20.790Z,60.30
2018-07-12T03:35:48.183Z,60.20
2018-07-12T03:38:15.533Z,60.20
2018-07-12T03:40:42.940Z,60.20
2018-07-12T03:43:10.339Z,60.20
2018-07-12T03:45:37.770Z,60.30
2018-07-12T03:48:05.176Z,60.30
2018-07-12T03:50:32.605Z,60.40
2018-07-12T03:53:00.032Z,61.10
2018-07-12T03:55:27.422Z,60.50
2018-07-12T03:57:54.828Z,60.50
2018-07-12T04:00:22.304Z,60.50
2018-07-12T04:02:49.668Z,60.50
2018-07-12T04:05:17.085Z,60.50
2018-07-12T04:07:44.513Z,60.50
2018-07-12T04:10:11.899Z,60.60
2018-07-12T04:12:39.551Z,60.70
2018-07-12T04:15:06.979Z,60.80
2018-07-12T04:17:35.017Z,61.50
2018-07-12T04:20:03.839Z,61.00
2018-07-12T04:22:32.452Z,61.20
2018-07-12T04:24:59.835Z,61.30
2018-07-12T04:27:27.616Z,61.20
2018-07-12T04:29:56.440Z,61.30
2018-07-12T04:32:23.801Z,61.40
2018-07-12T04:34:51.556Z,61.40
2018-07-12T04:37:19.320Z,61.60
2018-07-12T04:39:47.007Z,61.70
2018-07-12T04:42:14.385Z,61.70
2018-07-12T04:47:09.370Z,61.80
2018-07-12T04:49:36.792Z,61.80
2018-07-12T04:52:04.154Z,61.90
2018-07-12T04:54:31.541Z,62.00
2018-07-12T04:56:58.936Z,62.20
2018-07-12T04:59:26.322Z,62.40
2018-07-12T05:01:53.673Z,62.60
2018-07-12T05:04:21.079Z,62.60
2018-07-12T05:06:48.716Z,62.90
2018-07-12T05:09:16.215Z,63.10
2018-07-12T05:11:43.570Z,62.90
2018-07-12T05:14:10.924Z,63.10
2018-07-12T05:16:38.419Z,63.10
2018-07-12T05:19:05.777Z,63.30
2018-07-12T05:21:33.159Z,63.40
2018-07-12T05:24:00.555Z,63.50
2018-07-12T05:26:27.974Z,63.80
2018-07-12T05:28:55.336Z,63.80
2018-07-12T05:33:50.369Z,64.10
2018-07-12T05:37:25.166Z,65.00
2018-07-12T05:39:53.750Z,64.20
2018-07-12T05:42:22.273Z,64.30
2018-07-12T05:47:19.029Z,64.60
2018-07-12T05:49:47.600Z,64.60
2018-07-12T05:52:16.164Z,64.80
2018-07-12T05:54:44.681Z,64.70
2018-07-12T05:57:13.314Z,65.60
2018-07-12T05:59:41.844Z,66.50
2018-07-12T06:02:17.366Z,65.60
2018-07-12T06:04:46.117Z,66.30
2018-07-12T06:07:17.686Z,65.70
2018-07-12T06:09:46.222Z,65.70
2018-07-12T06:12:14.961Z,66.00
2018-07-12T06:14:43.474Z,65.50
2018-07-12T06:17:12.063Z,65.90
2018-07-12T06:19:40.570Z,65.70
2018-07-12T06:22:09.113Z,65.40
2018-07-12T06:24:37.989Z,65.20
2018-07-12T06:27:06.539Z,64.90
2018-07-12T06:32:03.914Z,64.60
2018-07-12T06:34:32.474Z,64.30
2018-07-12T06:37:03.319Z,63.90
2018-07-12T06:39:33.155Z,63.70
2018-07-12T06:42:01.711Z,63.80
2018-07-12T06:46:58.519Z,63.50
2018-07-12T06:49:27.072Z,63.00
2018-07-12T06:51:55.630Z,62.50
2018-07-12T06:54:24.248Z,62.60
2018-07-12T06:56:52.786Z,62.90
2018-07-12T06:59:21.326Z,62.30
2018-07-12T07:01:49.915Z,62.20
2018-07-12T07:04:18.500Z,62.00
2018-07-12T07:06:47.374Z,61.90
2018-07-12T07:09:16.080Z,61.80
2018-07-12T07:11:44.651Z,61.80
2018-07-12T07:14:13.331Z,61.80
2018-07-12T07:16:41.912Z,61.80
2018-07-12T07:19:10.518Z,61.70
2018-07-12T07:21:39.277Z,61.60
2018-07-12T07:26:36.095Z,61.40
2018-07-12T07:29:04.746Z,61.40
2018-07-12T07:31:33.290Z,61.30
2018-07-12T07:34:02.014Z,62.00
2018-07-12T07:36:30.546Z,61.30
2018-07-12T07:38:59.102Z,61.10
2018-07-12T07:41:27.814Z,61.20
2018-07-12T07:43:56.396Z,61.10
2018-07-12T07:46:24.942Z,61.00
2018-07-12T07:48:53.486Z,60.70
2018-07-12T07:51:22.030Z,60.70
2018-07-12T07:53:50.556Z,60.70
2018-07-12T07:56:19.177Z,60.70
2018-07-12T07:58:47.849Z,60.60
2018-07-12T08:01:16.412Z,60.60
2018-07-12T08:03:45.023Z,60.60
2018-07-12T08:06:13.571Z,60.60
2018-07-12T08:08:42.147Z,60.50
2018-07-12T08:11:10.677Z,60.50
2018-07-12T08:13:39.254Z,60.60
2018-07-12T08:16:07.841Z,60.50
2018-07-12T08:18:36.449Z,60.40
2018-07-12T08:21:10.831Z,60.50
2018-07-12T08:23:39.785Z,60.50
2018-07-12T08:26:08.390Z,60.30
2018-07-12T08:28:36.947Z,60.30
2018-07-12T08:31:05.539Z,60.10
2018-07-12T08:33:34.109Z,59.90
2018-07-12T08:36:02.672Z,59.60
2018-07-12T08:38:31.280Z,60.20
2018-07-12T08:41:00.362Z,60.40
2018-07-12T08:43:29.045Z,60.30
2018-07-12T08:45:57.967Z,60.20
2018-07-12T08:48:26.543Z,60.20
2018-07-12T08:50:55.113Z,60.10
2018-07-12T08:53:23.708Z,59.90
2018-07-12T08:55:52.258Z,59.90
2018-07-12T08:58:20.816Z,60.00
2018-07-12T09:00:49.338Z,60.00
2018-07-12T09:03:17.899Z,60.10
2018-07-12T09:05:46.483Z,60.30
2018-07-12T09:08:15.106Z,60.20
2018-07-12T09:10:43.685Z,60.40
2018-07-12T09:13:12.411Z,60.30
2018-07-12T09:15:40.963Z,60.30
2018-07-12T09:18:09.521Z,60.30
2018-07-12T09:20:38.129Z,60.30
2018-07-12T09:23:07.103Z,60.10
2018-07-12T09:25:35.629Z,60.10
2018-07-12T09:28:04.209Z,60.00
2018-07-12T09:30:32.743Z,60.00
2018-07-12T09:33:01.484Z,59.90
2018-07-12T09:35:30.091Z,59.90
2018-07-12T09:37:58.637Z,59.80
2018-07-12T09:40:27.277Z,60.00
2018-07-12T09:42:55.841Z,59.80
2018-07-12T09:45:24.459Z,59.40
2018-07-12T09:47:53.007Z,59.40
2018-07-12T09:52:49.746Z,59.20
2018-07-12T09:55:18.347Z,59.30
2018-07-12T09:57:58.131Z,59.30
2018-07-12T10:00:32.065Z,59.00
2018-07-12T10:03:05.919Z,58.60
2018-07-12T10:05:39.868Z,58.10
2018-07-12T10:08:13.757Z,58.10
2018-07-12T10:10:47.774Z,58.50
2018-07-12T10:13:21.595Z,58.90
2018-07-12T10:15:54.333Z,59.00
2018-07-12T10:18:23.842Z,58.40
2018-07-12T10:20:52.397Z,58.20
2018-07-12T10:23:20.930Z,58.50
2018-07-12T10:25:49.470Z,58.40
2018-07-12T10:28:18.232Z,58.80
2018-07-12T10:30:47.422Z,59.10
2018-07-12T10:33:16.290Z,59.30
2018-07-12T10:35:45.090Z,59.10
2018-07-12T10:38:13.617Z,58.50
2018-07-12T10:40:42.615Z,57.80
2018-07-12T10:45:39.709Z,55.40
2018-07-12T10:48:08.311Z,52.30
2018-07-12T10:50:37.327Z,50.50
2018-07-12T10:53:05.953Z,49.80
2018-07-12T10:55:34.499Z,49.50
2018-07-12T10:58:03.038Z,49.80
2018-07-12T11:00:31.574Z,49.00
2018-07-12T11:03:00.204Z,48.50
2018-07-12T11:05:28.753Z,48.50
2018-07-12T11:07:57.367Z,48.90
2018-07-12T11:10:25.977Z,49.40
2018-07-12T11:13:05.949Z,49.50
2018-07-12T11:15:34.488Z,49.40
2018-07-12T11:18:03.191Z,49.60
2018-07-12T11:20:32.010Z,49.70
2018-07-12T11:23:00.742Z,49.60
2018-07-12T11:25:30.244Z,49.40
2018-07-12T11:27:58.825Z,49.70
2018-07-12T11:30:27.653Z,50.00
2018-07-12T11:32:56.205Z,50.90
2018-07-12T11:35:24.719Z,50.50
2018-07-12T11:37:53.535Z,50.90
2018-07-12T11:40:22.081Z,50.80
2018-07-12T11:42:50.651Z,51.10
2018-07-12T11:45:19.190Z,51.10
2018-07-12T11:47:47.730Z,53.00
2018-07-12T11:50:16.339Z,52.10
2018-07-12T11:52:45.052Z,51.40
2018-07-12T11:55:13.469Z,50.80
2018-07-12T11:57:42.504Z,50.20
2018-07-12T12:00:11.395Z,49.80
2018-07-12T12:02:39.971Z,49.80
2018-07-12T12:05:08.547Z,49.90
2018-07-12T12:07:37.118Z,49.60
2018-07-12T12:10:05.647Z,49.30
2018-07-12T12:12:35.113Z,49.40
2018-07-12T12:15:03.802Z,49.40
2018-07-12T12:17:32.678Z,49.70
2018-07-12T12:20:01.296Z,49.50
2018-07-12T12:22:30.188Z,49.20
2018-07-12T12:24:58.958Z,49.30
2018-07-12T12:27:27.712Z,48.90
2018-07-12T12:29:56.660Z,48.80
2018-07-12T12:32:25.474Z,48.90
2018-07-12T12:34:54.228Z,48.10
2018-07-12T12:37:22.820Z,47.80
2018-07-12T12:39:51.358Z,47.70
2018-07-12T12:42:19.998Z,47.10
2018-07-12T12:44:48.658Z,47.30
2018-07-12T12:47:17.566Z,47.40
2018-07-12T12:49:46.066Z,47.90
2018-07-12T12:52:14.705Z,48.00
2018-07-12T12:57:12.005Z,48.20
2018-07-12T12:59:40.622Z,48.40
2018-07-12T13:02:09.141Z,48.40
2018-07-12T13:04:37.739Z,48.10
2018-07-12T13:07:06.328Z,48.80
2018-07-12T13:09:34.878Z,48.90
2018-07-12T13:12:03.460Z,48.90
2018-07-12T13:14:32.034Z,49.00
2018-07-12T13:17:00.660Z,49.50
2018-07-12T13:19:29.216Z,49.60
2018-07-12T13:21:57.752Z,49.60
2018-07-12T13:24:26.283Z,50.20
2018-07-12T13:26:54.842Z,49.60
2018-07-12T13:29:23.446Z,49.90
2018-07-12T13:31:52.035Z,49.90
2018-07-12T13:34:20.762Z,49.90
2018-07-12T13:36:49.546Z,49.90
2018-07-12T13:39:18.245Z,50.00
2018-07-12T13:41:46.786Z,50.10
2018-07-12T13:46:49.538Z,50.20
2018-07-12T13:49:18.333Z,50.20
2018-07-12T13:51:50.926Z,50.10
2018-07-12T13:54:20.134Z,50.20
2018-07-12T13:56:49.514Z,50.10
2018-07-12T13:59:18.143Z,50.00
2018-07-12T14:01:46.685Z,50.00
2018-07-12T14:04:15.258Z,49.90
2018-07-12T14:06:43.832Z,49.80
2018-07-12T14:09:13.508Z,49.30
2018-07-12T14:11:42.061Z,49.40
2018-07-12T14:14:10.675Z,49.40
2018-07-12T14:16:39.389Z,49.60
2018-07-12T14:19:08.043Z,49.70
2018-07-12T14:21:36.505Z,49.80
2018-07-12T14:24:05.142Z,49.80
2018-07-12T14:26:33.668Z,50.00
2018-07-12T14:29:04.993Z,50.10
2018-07-12T14:31:41.332Z,50.10
2018-07-12T14:34:09.917Z,50.10
2018-07-12T14:36:38.429Z,50.20
2018-07-12T14:39:08.642Z,50.10
2018-07-12T14:41:37.171Z,49.90
2018-07-12T14:44:06.023Z,49.90
2018-07-12T14:46:34.814Z,49.90
2018-07-12T14:49:03.497Z,49.80
2018-07-12T14:51:32.052Z,49.80
2018-07-12T14:54:00.583Z,49.90
2018-07-12T14:56:29.168Z,49.90
2018-07-12T14:58:57.706Z,49.80
2018-07-12T15:01:26.243Z,49.70
2018-07-12T15:03:54.765Z,49.90
2018-07-12T15:06:23.360Z,49.90
2018-07-12T15:08:51.933Z,49.90
2018-07-12T15:11:20.510Z,50.00
2018-07-12T15:13:49.157Z,49.90
2018-07-12T15:16:17.749Z,50.00
2018-07-12T15:18:46.282Z,50.00
2018-07-12T15:21:14.817Z,50.10
2018-07-12T15:23:43.353Z,50.10
2018-07-12T15:26:11.912Z,50.20
2018-07-12T15:28:40.441Z,50.10
2018-07-12T15:31:09.001Z,50.10
2018-07-12T15:33:37.534Z,50.20
2018-07-12T15:36:06.140Z,50.20
2018-07-12T15:38:34.646Z,50.20
2018-07-12T15:41:03.209Z,50.20
2018-07-12T15:43:31.742Z,50.40
2018-07-12T15:46:00.279Z,50.30
2018-07-12T15:48:28.804Z,50.30
2018-07-12T15:50:57.386Z,50.30
2018-07-12T15:53:25.895Z,50.40
2018-07-12T15:55:54.448Z,50.40
2018-07-12T15:58:23.120Z,50.40
2018-07-12T16:00:51.659Z,50.50
2018-07-12T16:03:20.206Z,50.50
2018-07-12T16:05:48.843Z,50.60
2018-07-12T16:08:17.404Z,50.50
2018-07-12T16:10:45.951Z,51.10
2018-07-12T16:13:14.550Z,50.60
2018-07-12T16:15:43.079Z,50.50
2018-07-12T16:18:11.595Z,50.50
2018-07-12T16:20:40.254Z,50.80
2018-07-12T16:23:08.790Z,50.50
2018-07-12T16:25:37.389Z,50.50
2018-07-12T16:28:06.125Z,50.60
2018-07-12T16:30:34.695Z,50.60
2018-07-12T16:33:03.225Z,50.50
2018-07-12T16:35:31.749Z,50.60
2018-07-12T16:38:00.287Z,50.70
2018-07-12T16:40:28.851Z,50.70
2018-07-12T16:42:57.452Z,50.70
2018-07-12T16:45:26.020Z,50.80
2018-07-12T16:47:54.720Z,50.80
2018-07-12T16:50:23.253Z,50.80
2018-07-12T16:52:52.090Z,50.70
2018-07-12T16:55:20.754Z,51.20
2018-07-12T16:57:49.351Z,50.80
2018-07-12T17:00:20.187Z,50.80
2018-07-12T17:02:49.930Z,50.80
2018-07-12T17:05:18.528Z,50.70
2018-07-12T17:07:47.149Z,50.80
2018-07-12T17:10:15.744Z,50.80
2018-07-12T17:12:44.706Z,50.80
2018-07-12T17:15:13.222Z,50.90
2018-07-12T17:17:42.642Z,50.80
2018-07-12T17:20:11.383Z,50.80
2018-07-12T17:22:39.972Z,50.80
2018-07-12T17:27:36.946Z,51.40
2018-07-12T17:30:05.490Z,50.80
2018-07-12T17:32:34.064Z,50.80
2018-07-12T17:35:02.647Z,50.80
2018-07-12T17:37:31.181Z,50.80
2018-07-12T17:39:59.800Z,50.80
2018-07-12T17:42:28.374Z,50.90
2018-07-12T17:44:56.895Z,51.10
2018-07-12T17:47:25.437Z,51.20
2018-07-12T17:49:54.053Z,51.10
2018-07-12T17:52:25.503Z,51.10
2018-07-12T17:54:54.069Z,51.10
2018-07-12T17:57:22.753Z,51.20
2018-07-12T17:59:51.411Z,51.20
2018-07-12T18:02:19.971Z,51.30
2018-07-12T18:04:48.592Z,51.30
2018-07-12T18:07:17.724Z,51.20
2018-07-12T18:09:46.242Z,51.30
2018-07-12T18:12:14.785Z,51.30
2018-07-12T18:14:43.549Z,51.40
2018-07-12T18:17:12.358Z,51.30
2018-07-12T18:19:40.879Z,51.40
2018-07-12T18:22:09.442Z,51.50
2018-07-12T18:24:37.965Z,51.60
2018-07-12T18:27:06.527Z,51.60
2018-07-12T18:29:35.042Z,51.80
2018-07-12T18:32:03.619Z,51.90
2018-07-12T18:34:32.133Z,52.10
2018-07-12T18:37:00.699Z,52.10
2018-07-12T18:39:29.257Z,52.90
2018-07-12T18:41:57.779Z,52.40
2018-07-12T18:44:26.321Z,52.60
2018-07-12T18:46:55.281Z,52.70
2018-07-12T18:49:23.822Z,53.50
2018-07-12T18:51:52.440Z,53.00
2018-07-12T18:54:21.021Z,53.20
2018-07-12T18:56:49.565Z,53.40
2018-07-12T18:59:18.133Z,53.40
2018-07-12T19:01:46.754Z,53.50
2018-07-12T19:04:15.299Z,54.20
2018-07-12T19:06:43.873Z,53.70
2018-07-12T19:09:12.522Z,53.70
2018-07-12T19:11:41.067Z,53.90
2018-07-12T19:14:09.649Z,54.00
2018-07-12T19:16:38.179Z,54.00
2018-07-12T19:19:06.727Z,54.20
2018-07-12T19:24:03.493Z,54.40
2018-07-12T19:26:32.090Z,54.50
2018-07-12T19:29:00.631Z,54.50
2018-07-12T19:31:29.200Z,54.70
2018-07-12T19:33:57.767Z,54.80
2018-07-12T19:36:27.036Z,54.80
2018-07-12T19:38:55.592Z,54.90
2018-07-12T19:41:24.238Z,55.00
2018-07-12T19:43:52.890Z,55.10
2018-07-12T19:46:21.419Z,55.30
2018-07-12T19:48:50.005Z,55.40
2018-07-12T19:51:18.538Z,55.50
2018-07-12T19:53:47.075Z,55.70
2018-07-12T19:56:15.624Z,55.80
2018-07-12T19:58:44.206Z,55.80
2018-07-12T20:01:12.806Z,56.00
2018-07-12T20:03:41.422Z,56.10
2018-07-12T20:06:09.974Z,56.20
2018-07-12T20:08:38.647Z,56.30
2018-07-12T20:11:07.386Z,56.20
2018-07-12T20:13:35.938Z,56.30
2018-07-12T20:16:04.786Z,56.40
2018-07-12T20:18:33.347Z,56.50
2018-07-12T20:21:01.943Z,56.50
2018-07-12T20:23:30.534Z,56.60
2018-07-12T20:25:59.100Z,56.60
2018-07-12T20:28:28.132Z,56.70
2018-07-12T20:30:56.862Z,56.80
2018-07-12T20:33:25.861Z,56.70
2018-07-12T20:35:54.368Z,56.80
2018-07-12T20:38:22.867Z,56.90
2018-07-12T20:40:51.514Z,57.00
2018-07-12T20:45:50.019Z,57.20
2018-07-12T20:48:18.537Z,57.10
2018-07-12T20:50:47.115Z,57.20
2018-07-12T20:53:15.825Z,57.20
2018-07-12T20:55:44.407Z,57.30
2018-07-12T20:58:13.593Z,57.30
2018-07-12T21:00:42.189Z,57.30
2018-07-12T21:03:10.979Z,57.40
2018-07-12T21:05:39.523Z,57.40
2018-07-12T21:08:08.064Z,57.30
2018-07-12T21:10:36.625Z,57.20
2018-07-12T21:13:05.412Z,57.30
2018-07-12T21:15:34.008Z,57.30
2018-07-12T21:18:02.522Z,57.30
2018-07-12T21:20:31.089Z,57.40
2018-07-12T21:22:59.603Z,57.50
2018-07-12T21:25:28.180Z,57.60
2018-07-12T21:27:56.707Z,57.50
2018-07-12T21:30:25.271Z,57.60
2018-07-12T21:35:22.121Z,57.50
2018-07-12T21:37:50.792Z,57.50
2018-07-12T21:40:19.369Z,57.60
2018-07-12T21:42:47.921Z,57.70
2018-07-12T21:45:16.457Z,57.60
2018-07-12T21:47:45.013Z,57.70
2018-07-12T21:50:13.573Z,57.80
2018-07-12T21:52:42.141Z,57.80
2018-07-12T21:55:10.708Z,57.80
2018-07-12T21:57:39.236Z,57.90
2018-07-12T22:00:09.182Z,58.00
2018-07-12T22:02:37.757Z,58.00
2018-07-12T22:05:06.520Z,58.10
2018-07-12T22:07:47.891Z,58.10
2018-07-12T22:10:16.521Z,58.20
2018-07-12T22:12:45.061Z,58.30
2018-07-12T22:15:13.622Z,58.30
2018-07-12T22:17:42.125Z,58.40
2018-07-12T22:20:10.779Z,58.50
2018-07-12T22:25:07.897Z,58.70
2018-07-12T22:27:36.459Z,58.80
2018-07-12T22:30:05.567Z,58.90
2018-07-12T22:32:34.090Z,59.00
2018-07-12T22:35:02.654Z,59.10
2018-07-12T22:37:31.202Z,59.10
2018-07-12T22:39:59.746Z,59.20
2018-07-12T22:42:28.408Z,59.30
2018-07-12T22:44:56.926Z,59.40
2018-07-12T22:47:25.479Z,59.40
2018-07-12T22:49:53.995Z,59.40
2018-07-12T22:52:22.590Z,59.50
2018-07-12T22:54:51.610Z,59.60
2018-07-12T22:57:20.521Z,59.60
2018-07-12T22:59:49.393Z,59.60
2018-07-12T23:02:18.082Z,59.60
2018-07-12T23:04:46.604Z,59.70
2018-07-12T23:07:15.150Z,59.70
2018-07-12T23:09:43.751Z,59.70
2018-07-12T23:12:12.299Z,59.70
2018-07-12T23:14:40.856Z,59.70
2018-07-12T23:17:09.432Z,59.70
2018-07-12T23:19:37.958Z,59.80
2018-07-12T23:22:06.580Z,60.40
2018-07-12T23:24:35.124Z,59.60
2018-07-12T23:27:03.674Z,59.70
2018-07-12T23:29:32.395Z,59.80
2018-07-12T23:32:00.990Z,59.80
2018-07-12T23:34:29.994Z,59.80
2018-07-12T23:36:58.622Z,59.80
2018-07-12T23:39:27.338Z,59.90
2018-07-12T23:41:56.204Z,60.00
2018-07-12T23:44:24.750Z,59.90
2018-07-12T23:46:53.344Z,60.70
2018-07-12T23:49:22.194Z,60.00
2018-07-12T23:51:50.906Z,60.00
2018-07-12T23:54:19.428Z,60.00
2018-07-12T23:56:47.972Z,60.80
2018-07-12T23:59:16.752Z,60.20
